createdAt,value
2023-05-22T00:02:04.688Z,97439.69
2023-05-22T00:04:32.402Z,97442.03
2023-05-22T00:07:00.003Z,97434.25
2023-05-22T00:09:27.275Z,97441.47
2023-05-22T00:11:54.579Z,97437.31
2023-05-22T00:14:21.771Z,97427.09
2023-05-22T00:16:49.063Z,97428.19
2023-05-22T00:19:16.952Z,97431.41
2023-05-22T00:21:45.250Z,97432.13
2023-05-22T00:24:12.828Z,97429.03
2023-05-22T00:26:40.129Z,97422.25
2023-05-22T00:29:07.522Z,97418.00
2023-05-22T00:31:34.987Z,97424.81
2023-05-22T00:34:02.443Z,97417.81
2023-05-22T00:36:29.878Z,97416.22
2023-05-22T00:38:57.264Z,97421.16
2023-05-22T00:41:24.944Z,97417.28
2023-05-22T00:43:52.234Z,97417.94
2023-05-22T00:46:21.780Z,97415.09
2023-05-22T00:48:49.384Z,97416.31
2023-05-22T00:51:16.766Z,97408.78
2023-05-22T00:53:45.125Z,97405.94
2023-05-22T00:56:13.155Z,97411.78
2023-05-22T00:58:41.400Z,97410.84
2023-05-22T01:01:11.589Z,97409.69
2023-05-22T01:03:45.087Z,97414.16
2023-05-22T01:06:21.561Z,97400.25
2023-05-22T01:08:48.882Z,97402.34
2023-05-22T01:11:28.419Z,97400.97
2023-05-22T01:14:26.140Z,97397.91
2023-05-22T01:17:13.747Z,97398.03
2023-05-22T01:20:01.308Z,97400.47
2023-05-22T01:23:00.227Z,97403.72
2023-05-22T01:25:53.073Z,97401.06
2023-05-22T01:28:42.372Z,97398.41
2023-05-22T01:31:15.920Z,97403.63
2023-05-22T01:33:48.951Z,97400.09
2023-05-22T01:36:22.478Z,97412.75
2023-05-22T01:38:51.400Z,97410.31
2023-05-22T01:41:19.439Z,97409.22
2023-05-22T01:43:48.177Z,97412.13
2023-05-22T01:46:15.547Z,97413.50
2023-05-22T01:48:42.910Z,97410.59
2023-05-22T01:51:38.005Z,97407.38
2023-05-22T01:54:39.316Z,97410.41
2023-05-22T01:57:25.008Z,97408.84
2023-05-22T02:00:12.112Z,97404.16
2023-05-22T02:02:53.736Z,97400.81
2023-05-22T02:05:23.456Z,97394.66
2023-05-22T02:07:51.457Z,97400.91
2023-05-22T02:10:20.584Z,97392.50
2023-05-22T02:12:48.458Z,97393.63
2023-05-22T02:15:16.865Z,97398.31
2023-05-22T02:17:45.628Z,97400.78
2023-05-22T02:20:15.940Z,97390.97
2023-05-22T02:22:47.053Z,97391.81
2023-05-22T02:25:17.207Z,97385.16
2023-05-22T02:27:49.893Z,97382.56
2023-05-22T02:30:17.437Z,97387.47
2023-05-22T02:32:47.845Z,97390.53
2023-05-22T02:35:15.122Z,97386.44
2023-05-22T02:37:42.395Z,97384.84
2023-05-22T02:40:10.608Z,97385.56
2023-05-22T02:42:38.129Z,97389.50
2023-05-22T02:45:06.816Z,97380.03
2023-05-22T02:47:34.113Z,97382.97
2023-05-22T02:50:01.604Z,97379.34
2023-05-22T02:52:31.011Z,97383.97
2023-05-22T02:54:58.371Z,97383.38
2023-05-22T02:57:25.925Z,97385.47
2023-05-22T02:59:54.194Z,97388.88
2023-05-22T03:02:21.546Z,97386.22
2023-05-22T03:04:49.051Z,97387.44
2023-05-22T03:07:17.204Z,97376.91
2023-05-22T03:09:44.512Z,97383.03
2023-05-22T03:12:12.448Z,97380.59
2023-05-22T03:14:39.779Z,97381.81
2023-05-22T03:17:07.075Z,97382.47
2023-05-22T03:19:34.530Z,97387.38
2023-05-22T03:22:02.010Z,97392.00
2023-05-22T03:24:30.632Z,97390.44
2023-05-22T03:26:59.479Z,97394.25
2023-05-22T03:29:36.541Z,97396.69
2023-05-22T03:32:04.684Z,97393.75
2023-05-22T03:34:32.442Z,97393.97
2023-05-22T03:37:01.046Z,97395.09
2023-05-22T03:39:28.496Z,97395.06
2023-05-22T03:42:14.319Z,97391.06
2023-05-22T03:44:41.631Z,97395.44
2023-05-22T03:47:09.040Z,97397.91
2023-05-22T03:49:36.323Z,97393.69
2023-05-22T03:52:05.737Z,97398.38
2023-05-22T03:54:33.009Z,97397.88
2023-05-22T03:57:00.850Z,97402.25
2023-05-22T03:59:28.110Z,97398.78
2023-05-22T04:01:58.169Z,97405.41
2023-05-22T04:04:27.018Z,97409.84
2023-05-22T04:06:54.457Z,97412.78
2023-05-22T04:09:21.834Z,97414.81
2023-05-22T04:11:49.631Z,97410.00
2023-05-22T04:14:16.959Z,97412.63
2023-05-22T04:16:44.271Z,97410.59
2023-05-22T04:19:12.571Z,97410.94
2023-05-22T04:21:39.974Z,97408.88
2023-05-22T04:24:09.601Z,97410.09
2023-05-22T04:26:40.459Z,97420.16
2023-05-22T04:29:10.739Z,97419.06
2023-05-22T04:31:38.293Z,97416.53
2023-05-22T04:34:06.429Z,97418.47
2023-05-22T04:36:33.740Z,97412.97
2023-05-22T04:39:05.074Z,97418.72
2023-05-22T04:41:32.611Z,97415.75
2023-05-22T04:44:00.466Z,97405.69
2023-05-22T04:46:28.856Z,97409.94
2023-05-22T04:48:56.527Z,97412.50
2023-05-22T04:51:23.853Z,97408.59
2023-05-22T04:53:52.101Z,97407.94
2023-05-22T04:56:31.829Z,97404.78
2023-05-22T04:59:04.905Z,97407.63
2023-05-22T05:01:35.292Z,97410.22
2023-05-22T05:04:03.998Z,97408.19
2023-05-22T05:06:31.542Z,97403.84
2023-05-22T05:08:58.841Z,97414.44
2023-05-22T05:11:26.298Z,97418.75
2023-05-22T05:13:53.590Z,97412.50
2023-05-22T05:16:21.126Z,97410.91
2023-05-22T05:18:48.431Z,97417.00
2023-05-22T05:21:15.770Z,97417.38
2023-05-22T05:23:43.209Z,97411.94
2023-05-22T05:26:10.576Z,97415.81
2023-05-22T05:28:38.297Z,97421.91
2023-05-22T05:31:07.841Z,97418.09
2023-05-22T05:33:58.398Z,97415.16
2023-05-22T05:36:48.702Z,97425.13
2023-05-22T05:39:17.530Z,97423.47
2023-05-22T05:41:44.840Z,97418.13
2023-05-22T05:44:12.296Z,97425.13
2023-05-22T05:46:39.773Z,97414.13
2023-05-22T05:49:12.123Z,97423.63
2023-05-22T05:51:41.209Z,97422.25
2023-05-22T05:54:08.869Z,97422.94
2023-05-22T05:56:37.722Z,97419.94
2023-05-22T05:59:05.509Z,97420.31
2023-05-22T06:01:53.321Z,97418.34
2023-05-22T06:04:25.607Z,97407.91
2023-05-22T06:06:53.840Z,97412.47
2023-05-22T06:09:36.459Z,97407.81
2023-05-22T06:12:12.957Z,97405.94
2023-05-22T06:14:43.991Z,97405.63
2023-05-22T06:17:11.287Z,97404.16
2023-05-22T06:19:41.241Z,97399.34
2023-05-22T06:22:08.858Z,97395.03
2023-05-22T06:24:38.220Z,97400.94
2023-05-22T06:27:11.778Z,97400.91
2023-05-22T06:29:39.144Z,97398.56
2023-05-22T06:32:07.580Z,97398.66
2023-05-22T06:34:36.969Z,97394.69
2023-05-22T06:37:05.925Z,97390.38
2023-05-22T06:39:39.735Z,97390.81
2023-05-22T06:42:11.853Z,97388.84
2023-05-22T06:45:08.918Z,97395.81
2023-05-22T06:47:46.662Z,97385.75
2023-05-22T06:50:14.115Z,97391.44
2023-05-22T06:52:41.983Z,97391.66
2023-05-22T06:55:11.478Z,97394.53
2023-05-22T06:57:51.623Z,97399.88
2023-05-22T07:00:21.992Z,97402.19
2023-05-22T07:03:12.640Z,97396.50
2023-05-22T07:05:58.080Z,97402.22
2023-05-22T07:08:28.369Z,97400.88
2023-05-22T07:10:57.217Z,97409.38
2023-05-22T07:13:25.067Z,97401.25
2023-05-22T07:15:52.422Z,97399.78
2023-05-22T07:18:19.752Z,97396.28
2023-05-22T07:20:47.411Z,97390.66
2023-05-22T07:23:18.651Z,97399.34
2023-05-22T07:25:46.131Z,97399.38
2023-05-22T07:28:15.322Z,97393.56
2023-05-22T07:30:52.166Z,97389.72
2023-05-22T07:33:19.793Z,97388.22
2023-05-22T07:35:47.384Z,97392.66
2023-05-22T07:38:14.860Z,97390.03
2023-05-22T07:40:49.677Z,97385.06
2023-05-22T07:43:17.559Z,97404.53
2023-05-22T07:45:45.251Z,97403.19
2023-05-22T07:48:15.334Z,97404.13
2023-05-22T07:50:45.413Z,97397.75
2023-05-22T07:53:12.947Z,97398.03
2023-05-22T07:55:43.242Z,97389.25
2023-05-22T07:58:10.928Z,97396.28
2023-05-22T08:00:41.954Z,97383.69
2023-05-22T08:03:09.372Z,97370.94
2023-05-22T08:05:36.666Z,97376.72
2023-05-22T08:08:04.829Z,97375.53
2023-05-22T08:10:46.510Z,97374.56
2023-05-22T08:13:16.904Z,97378.91
2023-05-22T08:15:44.267Z,97369.16
2023-05-22T08:18:11.875Z,97362.25
2023-05-22T08:20:39.352Z,97369.41
2023-05-22T08:23:06.982Z,97368.97
2023-05-22T08:25:34.379Z,97372.16
2023-05-22T08:28:01.663Z,97369.03
2023-05-22T08:30:28.928Z,97376.69
2023-05-22T08:32:56.386Z,97375.22
2023-05-22T08:35:23.713Z,97376.09
2023-05-22T08:37:51.092Z,97380.44
2023-05-22T08:40:22.082Z,97377.44
2023-05-22T08:42:54.403Z,97380.59
2023-05-22T08:45:21.976Z,97382.63
2023-05-22T08:47:55.356Z,97377.34
2023-05-22T08:50:24.645Z,97379.91
2023-05-22T08:52:52.930Z,97388.66
2023-05-22T08:55:20.784Z,97376.91
2023-05-22T08:57:49.539Z,97382.72
2023-05-22T09:00:18.438Z,97371.66
2023-05-22T09:02:47.097Z,97372.31
2023-05-22T09:05:16.073Z,97368.41
2023-05-22T09:07:43.816Z,97372.84
2023-05-22T09:10:11.560Z,97368.72
2023-05-22T09:12:38.954Z,97361.56
2023-05-22T09:15:13.723Z,97361.56
2023-05-22T09:17:41.544Z,97357.34
2023-05-22T09:20:13.427Z,97356.56
2023-05-22T09:22:40.765Z,97353.56
2023-05-22T09:25:08.696Z,97356.31
2023-05-22T09:27:36.467Z,97346.75
2023-05-22T09:30:03.998Z,97350.81
2023-05-22T09:32:31.629Z,97361.06
2023-05-22T09:35:06.785Z,97344.88
2023-05-22T09:37:35.875Z,97349.00
2023-05-22T09:40:12.261Z,97341.81
2023-05-22T09:42:39.563Z,97347.41
2023-05-22T09:45:08.854Z,97339.41
2023-05-22T09:47:36.395Z,97337.97
2023-05-22T09:50:07.258Z,97336.31
2023-05-22T09:52:37.301Z,97338.06
2023-05-22T09:55:07.393Z,97335.53
2023-05-22T09:57:45.157Z,97337.56
2023-05-22T10:00:17.662Z,97338.44
2023-05-22T10:02:50.960Z,97337.91
2023-05-22T10:05:22.270Z,97349.00
2023-05-22T10:08:01.773Z,97342.50
2023-05-22T10:10:29.100Z,97343.19
2023-05-22T10:13:05.234Z,97342.56
2023-05-22T10:15:32.733Z,97342.25
2023-05-22T10:18:00.774Z,97343.09
2023-05-22T10:20:30.393Z,97335.59
2023-05-22T10:22:57.894Z,97337.94
2023-05-22T10:25:26.145Z,97328.53
2023-05-22T10:27:55.003Z,97331.69
2023-05-22T10:30:40.870Z,97334.19
2023-05-22T10:33:39.962Z,97329.78
2023-05-22T10:37:12.959Z,97330.47
2023-05-22T10:40:12.019Z,97323.75
2023-05-22T10:42:39.713Z,97332.25
2023-05-22T10:45:10.999Z,97329.44
2023-05-22T10:47:38.434Z,97331.34
2023-05-22T10:50:11.247Z,97334.88
2023-05-22T10:52:40.028Z,97334.53
2023-05-22T10:55:11.836Z,97333.94
2023-05-22T10:57:40.259Z,97316.31
2023-05-22T11:00:15.196Z,97319.72
2023-05-22T11:02:46.412Z,97316.81
2023-05-22T11:05:21.746Z,97311.41
2023-05-22T11:07:49.526Z,97311.03
2023-05-22T11:10:27.260Z,97304.34
2023-05-22T11:13:12.466Z,97298.47
2023-05-22T11:15:45.849Z,97302.28
2023-05-22T11:18:15.173Z,97299.34
2023-05-22T11:20:43.992Z,97299.78
2023-05-22T11:23:11.988Z,97301.59
2023-05-22T11:25:42.184Z,97296.16
2023-05-22T11:28:11.579Z,97303.84
2023-05-22T11:30:39.954Z,97296.03
2023-05-22T11:33:07.704Z,97291.38
2023-05-22T11:35:35.685Z,97284.69
2023-05-22T11:38:08.511Z,97280.44
2023-05-22T11:40:35.957Z,97285.47
2023-05-22T11:43:04.803Z,97281.53
2023-05-22T11:45:32.189Z,97285.78
2023-05-22T11:47:59.671Z,97280.25
2023-05-22T11:50:41.144Z,97279.47
2023-05-22T11:53:10.280Z,97276.75
2023-05-22T11:55:37.704Z,97283.59
2023-05-22T11:58:04.967Z,97279.84
2023-05-22T12:00:32.657Z,97283.69
2023-05-22T12:03:00.226Z,97281.94
2023-05-22T12:05:27.878Z,97278.84
2023-05-22T12:07:55.456Z,97274.56
2023-05-22T12:10:22.994Z,97276.06
2023-05-22T12:12:50.507Z,97270.97
2023-05-22T12:15:21.310Z,97273.28
2023-05-22T12:17:48.826Z,97275.47
2023-05-22T12:20:16.614Z,97277.44
2023-05-22T12:22:44.377Z,97273.66
2023-05-22T12:25:20.433Z,97285.47
2023-05-22T12:27:48.135Z,97277.75
2023-05-22T12:30:16.777Z,97279.78
2023-05-22T12:32:49.604Z,97277.50
2023-05-22T12:35:18.124Z,97274.13
2023-05-22T12:37:50.698Z,97271.47
2023-05-22T12:40:18.485Z,97271.09
2023-05-22T12:42:46.195Z,97278.47
2023-05-22T12:45:14.094Z,97271.50
2023-05-22T12:47:41.498Z,97272.03
2023-05-22T12:50:09.369Z,97273.56
2023-05-22T12:52:36.874Z,97273.94
2023-05-22T12:55:04.756Z,97274.31
2023-05-22T12:57:32.102Z,97269.00
2023-05-22T12:59:59.426Z,97270.31
2023-05-22T13:02:26.931Z,97262.53
2023-05-22T13:04:54.329Z,97267.47
2023-05-22T13:07:21.810Z,97278.19
2023-05-22T13:09:49.175Z,97268.50
2023-05-22T13:12:16.778Z,97264.59
2023-05-22T13:14:44.195Z,97262.59
2023-05-22T13:17:11.800Z,97269.63
2023-05-22T13:19:39.252Z,97261.91
2023-05-22T13:22:07.838Z,97265.88
2023-05-22T13:24:35.220Z,97266.84
2023-05-22T13:27:02.538Z,97262.97
2023-05-22T13:29:30.089Z,97263.31
2023-05-22T13:31:57.386Z,97263.44
2023-05-22T13:34:25.061Z,97257.16
2023-05-22T13:36:52.682Z,97262.34
2023-05-22T13:39:20.046Z,97254.31
2023-05-22T13:41:47.623Z,97246.38
2023-05-22T13:44:14.979Z,97247.94
2023-05-22T13:46:42.344Z,97245.22
2023-05-22T13:49:09.650Z,97244.84
2023-05-22T13:51:38.112Z,97241.09
2023-05-22T13:54:05.645Z,97231.81
2023-05-22T13:56:32.874Z,97226.50
2023-05-22T13:59:00.444Z,97226.03
2023-05-22T14:01:28.162Z,97233.13
2023-05-22T14:03:55.535Z,97233.59
2023-05-22T14:06:22.965Z,97229.44
2023-05-22T14:08:50.570Z,97227.88
2023-05-22T14:11:17.874Z,97228.31
2023-05-22T14:13:45.264Z,97219.56
2023-05-22T14:16:12.725Z,97224.22
2023-05-22T14:18:40.272Z,97219.34
2023-05-22T14:21:07.662Z,97222.28
2023-05-22T14:23:35.144Z,97213.13
2023-05-22T14:26:02.554Z,97214.47
2023-05-22T14:28:31.882Z,97215.06
2023-05-22T14:30:59.295Z,97219.84
2023-05-22T14:33:26.643Z,97213.25
2023-05-22T14:35:54.154Z,97210.59
2023-05-22T14:38:21.388Z,97219.28
2023-05-22T14:40:48.715Z,97213.19
2023-05-22T14:43:16.193Z,97209.06
2023-05-22T14:45:44.194Z,97220.78
2023-05-22T14:48:12.891Z,97214.59
2023-05-22T14:50:40.222Z,97209.31
2023-05-22T14:53:07.605Z,97215.16
2023-05-22T14:55:35.066Z,97214.72
2023-05-22T14:58:02.361Z,97215.59
2023-05-22T15:00:29.645Z,97213.38
2023-05-22T15:02:57.265Z,97212.97
2023-05-22T15:05:26.633Z,97209.59
2023-05-22T15:07:54.679Z,97211.78
2023-05-22T15:10:22.006Z,97215.25
2023-05-22T15:12:49.338Z,97212.91
2023-05-22T15:15:16.691Z,97208.59
2023-05-22T15:17:44.188Z,97200.06
2023-05-22T15:20:13.319Z,97209.63
2023-05-22T15:22:40.727Z,97205.56
2023-05-22T15:25:20.170Z,97199.22
2023-05-22T15:27:47.530Z,97199.50
2023-05-22T15:30:17.150Z,97187.16
2023-05-22T15:32:44.928Z,97182.53
2023-05-22T15:35:14.213Z,97188.09
2023-05-22T15:37:41.934Z,97184.06
2023-05-22T15:40:11.482Z,97188.00
2023-05-22T15:42:38.928Z,97186.69
2023-05-22T15:45:07.055Z,97184.78
2023-05-22T15:47:34.470Z,97186.09
2023-05-22T15:50:01.760Z,97182.44
2023-05-22T15:52:29.096Z,97187.69
2023-05-22T15:57:26.962Z,97180.56
2023-05-22T15:59:54.512Z,97172.72
2023-05-22T16:02:22.026Z,97180.25
2023-05-22T16:04:49.939Z,97175.00
2023-05-22T16:07:20.387Z,97170.94
2023-05-22T16:09:50.131Z,97181.03
2023-05-22T16:12:18.212Z,97170.66
2023-05-22T16:14:45.630Z,97172.34
2023-05-22T16:17:12.911Z,97182.84
2023-05-22T16:19:40.126Z,97169.50
2023-05-22T16:22:07.516Z,97163.63
2023-05-22T16:24:34.742Z,97165.75
2023-05-22T16:27:02.178Z,97169.59
2023-05-22T16:29:30.507Z,97167.91
2023-05-22T16:31:57.814Z,97160.28
2023-05-22T16:34:25.336Z,97171.47
2023-05-22T16:36:52.648Z,97170.50
2023-05-22T16:39:20.232Z,97173.81
2023-05-22T16:41:47.628Z,97183.38
2023-05-22T16:44:14.983Z,97178.53
2023-05-22T16:46:42.317Z,97183.50
2023-05-22T16:49:09.693Z,97180.25
2023-05-22T16:51:37.100Z,97183.06
2023-05-22T16:54:04.679Z,97190.13
2023-05-22T16:56:34.065Z,97185.97
2023-05-22T16:59:02.150Z,97186.97
2023-05-22T17:01:29.680Z,97190.91
2023-05-22T17:03:57.024Z,97183.44
2023-05-22T17:06:24.573Z,97189.25
2023-05-22T17:08:52.043Z,97193.06
2023-05-22T17:11:19.415Z,97184.44
2023-05-22T17:13:46.913Z,97190.50
2023-05-22T17:16:14.382Z,97189.38
2023-05-22T17:18:41.910Z,97192.69
2023-05-22T17:21:09.469Z,97199.53
2023-05-22T17:23:37.432Z,97193.34
2023-05-22T17:26:05.230Z,97190.22
2023-05-22T17:28:32.761Z,97189.53
2023-05-22T17:31:00.727Z,97188.47
2023-05-22T17:33:28.289Z,97191.31
2023-05-22T17:35:55.686Z,97193.66
2023-05-22T17:38:23.120Z,97187.69
2023-05-22T17:40:52.030Z,97185.47
2023-05-22T17:43:19.973Z,97185.22
2023-05-22T17:45:50.615Z,97183.78
2023-05-22T17:48:23.725Z,97185.88
2023-05-22T17:50:52.206Z,97182.31
2023-05-22T17:53:21.026Z,97171.81
2023-05-22T17:55:50.185Z,97179.13
2023-05-22T17:58:17.899Z,97174.78
2023-05-22T18:00:46.708Z,97173.66
2023-05-22T18:03:14.717Z,97173.47
2023-05-22T18:05:43.667Z,97176.38
2023-05-22T18:08:11.276Z,97182.41
2023-05-22T18:10:38.804Z,97168.78
2023-05-22T18:13:06.459Z,97163.50
2023-05-22T18:15:33.724Z,97165.19
2023-05-22T18:18:01.135Z,97164.06
2023-05-22T18:20:28.391Z,97160.91
2023-05-22T18:22:56.048Z,97167.97
2023-05-22T18:25:23.491Z,97164.50
2023-05-22T18:27:50.747Z,97167.28
2023-05-22T18:30:18.540Z,97156.19
2023-05-22T18:32:46.264Z,97160.34
2023-05-22T18:35:13.695Z,97164.91
2023-05-22T18:37:41.558Z,97156.94
2023-05-22T18:40:10.999Z,97161.91
2023-05-22T18:42:39.074Z,97153.06
2023-05-22T18:45:07.895Z,97154.94
2023-05-22T18:47:35.362Z,97152.03
2023-05-22T18:50:04.430Z,97151.22
2023-05-22T18:52:31.716Z,97150.50
2023-05-22T18:54:59.043Z,97151.69
2023-05-22T18:57:26.308Z,97168.44
2023-05-22T18:59:53.652Z,97165.72
2023-05-22T19:02:22.073Z,97168.00
2023-05-22T19:04:50.869Z,97163.03
2023-05-22T19:07:18.448Z,97165.09
2023-05-22T19:09:46.033Z,97166.88
2023-05-22T19:12:13.536Z,97167.19
2023-05-22T19:14:40.843Z,97167.91
2023-05-22T19:17:08.231Z,97168.59
2023-05-22T19:19:35.726Z,97169.34
2023-05-22T19:22:03.157Z,97156.16
2023-05-22T19:24:31.223Z,97163.09
2023-05-22T19:26:58.560Z,97164.66
2023-05-22T19:29:26.066Z,97160.09
2023-05-22T19:31:53.418Z,97169.97
2023-05-22T19:34:20.986Z,97164.34
2023-05-22T19:36:50.421Z,97159.16
2023-05-22T19:39:17.907Z,97155.06
2023-05-22T19:41:45.206Z,97159.47
2023-05-22T19:44:12.719Z,97159.31
2023-05-22T19:46:40.160Z,97166.22
2023-05-22T19:49:07.506Z,97155.69
2023-05-22T19:51:34.811Z,97163.72
2023-05-22T19:54:02.215Z,97167.03
2023-05-22T19:56:30.434Z,97161.22
2023-05-22T19:58:57.888Z,97156.94
2023-05-22T20:01:25.241Z,97151.94
2023-05-22T20:03:54.833Z,97156.97
2023-05-22T20:06:22.862Z,97152.22
2023-05-22T20:08:50.316Z,97147.81
2023-05-22T20:11:17.818Z,97157.22
2023-05-22T20:13:45.133Z,97154.25
2023-05-22T20:16:12.902Z,97161.25
2023-05-22T20:18:41.266Z,97158.84
2023-05-22T20:21:09.799Z,97162.09
2023-05-22T20:23:37.395Z,97157.56
2023-05-22T20:26:06.005Z,97159.59
2023-05-22T20:28:33.364Z,97157.22
2023-05-22T20:31:00.631Z,97151.13
2023-05-22T20:33:28.407Z,97159.06
2023-05-22T20:35:55.894Z,97160.00
2023-05-22T20:38:23.388Z,97154.22
2023-05-22T20:40:51.903Z,97145.72
2023-05-22T20:43:20.263Z,97149.31
2023-05-22T20:45:48.129Z,97139.72
2023-05-22T20:48:16.750Z,97144.75
2023-05-22T20:50:47.236Z,97144.88
2023-05-22T20:53:15.119Z,97147.59
2023-05-22T20:55:42.783Z,97143.88
2023-05-22T20:58:10.958Z,97143.31
2023-05-22T21:00:41.687Z,97153.97
2023-05-22T21:03:09.221Z,97153.31
2023-05-22T21:05:36.793Z,97145.53
2023-05-22T21:08:04.109Z,97144.13
2023-05-22T21:10:31.448Z,97147.78
2023-05-22T21:12:58.861Z,97141.47
2023-05-22T21:15:26.402Z,97147.41
2023-05-22T21:17:53.895Z,97143.88
2023-05-22T21:20:21.386Z,97140.28
2023-05-22T21:22:49.714Z,97145.72
2023-05-22T21:25:17.341Z,97152.09
2023-05-22T21:27:46.680Z,97137.72
2023-05-22T21:30:15.236Z,97142.94
2023-05-22T21:32:43.296Z,97139.47
2023-05-22T21:35:10.751Z,97149.13
2023-05-22T21:37:38.099Z,97138.47
2023-05-22T21:40:06.396Z,97130.16
2023-05-22T21:42:45.008Z,97142.41
2023-05-22T21:45:14.548Z,97140.28
2023-05-22T21:47:41.937Z,97136.94
2023-05-22T21:50:10.028Z,97135.53
2023-05-22T21:52:37.298Z,97136.34
2023-05-22T21:55:05.085Z,97142.66
2023-05-22T21:57:32.330Z,97142.72
2023-05-22T21:59:59.661Z,97141.16
2023-05-22T22:02:26.943Z,97141.03
2023-05-22T22:04:54.325Z,97143.47
2023-05-22T22:07:21.571Z,97138.91
2023-05-22T22:09:49.749Z,97135.47
2023-05-22T22:12:17.021Z,97134.97
2023-05-22T22:14:44.321Z,97131.84
2023-05-22T22:17:11.620Z,97130.69
2023-05-22T22:19:40.246Z,97131.84
2023-05-22T22:22:07.636Z,97133.72
2023-05-22T22:24:34.984Z,97139.19
2023-05-22T22:27:02.357Z,97135.34
2023-05-22T22:29:29.636Z,97135.34
2023-05-22T22:31:56.948Z,97131.91
2023-05-22T22:34:24.449Z,97135.03
2023-05-22T22:36:51.818Z,97131.28
2023-05-22T22:39:19.075Z,97134.75
2023-05-22T22:41:46.254Z,97142.25
2023-05-22T22:44:14.013Z,97142.72
2023-05-22T22:46:42.693Z,97140.88
2023-05-22T22:49:10.278Z,97139.69
2023-05-22T22:51:37.847Z,97134.78
2023-05-22T22:54:05.478Z,97132.88
2023-05-22T22:56:32.754Z,97131.03
2023-05-22T22:59:00.019Z,97136.41
2023-05-22T23:01:27.362Z,97139.00
2023-05-22T23:03:54.789Z,97141.03
2023-05-22T23:06:23.883Z,97132.66
2023-05-22T23:08:51.241Z,97135.84
2023-05-22T23:11:18.469Z,97126.59
2023-05-22T23:13:45.978Z,97121.28
2023-05-22T23:16:13.371Z,97125.13
2023-05-22T23:18:40.835Z,97121.19
2023-05-22T23:21:08.080Z,97106.94
2023-05-22T23:23:35.398Z,97118.94
2023-05-22T23:26:02.586Z,97112.25
2023-05-22T23:28:29.942Z,97119.63
2023-05-22T23:30:57.495Z,97120.41
2023-05-22T23:33:24.729Z,97108.50
2023-05-22T23:35:52.021Z,97109.09
2023-05-22T23:38:19.404Z,97110.66
2023-05-22T23:40:46.696Z,97105.84
2023-05-22T23:43:13.989Z,97100.94
2023-05-22T23:45:41.600Z,97101.13
2023-05-22T23:48:09.078Z,97098.56
2023-05-22T23:50:36.265Z,97096.31
2023-05-22T23:53:04.080Z,97099.84
2023-05-22T23:55:31.513Z,97100.31
2023-05-22T23:57:58.690Z,97095.31
